Terminal Aerodrome Forecast
Issued by NWS

Current Version | Previous Version | Text Only | Print | Product List | Glossary On
Versions: 1 2 3 4 5 6 7 8 9 10 11 12 13 14 15 16 17 18
000
FTUS44 KLIX 191335 AAB
TAFGPT
TAF AMD
KGPT 191335Z 1914/2012 29005KT P6SM SCT015 BKN250
     FM191700 24009KT P6SM SCT070
     FM200000 20009KT P6SM SCT250
      TEMPO 2008/2012 BKN015=

USA.gov is the U.S. government's official web portal to all federal, state and local government web resources and services.